Terminal Aerodrome Forecast
Issued by NWS

Home | Current Version | Previous Version | Text Only | Print | Product List | Glossary On
Versions: 1 2 3 4 5 6 7 8 9 10 11 12 13 14
000
FTAK31 PANC 011129
TAFAEN
TAF
PAEN 011129Z 0112/0212 04005KT P6SM VCSH SCT050 BKN070 OVC120
     FM011500 04011KT P6SM -SHRA SCT040 OVC070
     FM012100 04013G18KT P6SM -SHRA SCT030 OVC050
     FM020000 06009KT P6SM -SHRA SCT040 OVC070=

USA.gov is the U.S. government's official web portal to all federal, state and local government web resources and services.